createdAt,value
2023-04-10T00:00:46.425Z,447.00
2023-04-10T00:01:46.471Z,446.00
2023-04-10T00:02:46.502Z,445.00
2023-04-10T00:03:46.544Z,446.00
2023-04-10T00:04:46.443Z,445.00
2023-04-10T00:05:46.401Z,445.00
2023-04-10T00:06:46.358Z,445.00
2023-04-10T00:07:46.364Z,447.00
2023-04-10T00:08:46.377Z,448.00
2023-04-10T00:09:46.339Z,447.00
2023-04-10T00:10:46.312Z,447.00
2023-04-10T00:11:46.346Z,448.00
2023-04-10T00:12:46.387Z,448.00
2023-04-10T00:13:46.393Z,450.00
2023-04-10T00:14:46.402Z,449.00
2023-04-10T00:15:46.432Z,449.00
2023-04-10T00:16:46.505Z,448.00
2023-04-10T00:17:46.462Z,446.00
2023-04-10T00:18:46.444Z,447.00
2023-04-10T00:19:46.481Z,447.00
2023-04-10T00:20:46.465Z,451.00
2023-04-10T00:21:46.491Z,453.00
2023-04-10T00:22:46.497Z,453.00
2023-04-10T00:23:46.481Z,453.00
2023-04-10T00:24:46.481Z,452.00
2023-04-10T00:25:46.493Z,451.00
2023-04-10T00:26:46.493Z,451.00
2023-04-10T00:27:46.503Z,451.00
2023-04-10T00:28:46.510Z,450.00
2023-04-10T00:29:46.525Z,451.00
2023-04-10T00:30:46.547Z,451.00
2023-04-10T00:31:46.598Z,449.00
2023-04-10T00:32:46.613Z,450.00
2023-04-10T00:33:46.570Z,452.00
2023-04-10T00:34:46.591Z,455.00
2023-04-10T00:35:46.630Z,455.00
2023-04-10T00:36:46.609Z,454.00
2023-04-10T00:37:46.613Z,453.00
2023-04-10T00:38:46.639Z,453.00
2023-04-10T00:39:46.656Z,456.00
2023-04-10T00:40:46.710Z,455.00
2023-04-10T00:41:46.709Z,453.00
2023-04-10T00:42:46.697Z,454.00
2023-04-10T00:43:46.718Z,455.00
2023-04-10T00:44:46.718Z,455.00
2023-04-10T00:45:47.932Z,456.00
2023-04-10T00:46:46.699Z,453.00
2023-04-10T00:47:46.710Z,453.00
2023-04-10T00:48:46.660Z,453.00
2023-04-10T00:49:46.670Z,452.00
2023-04-10T00:50:46.677Z,453.00
2023-04-10T00:51:46.652Z,451.00
2023-04-10T00:52:46.634Z,451.00
2023-04-10T00:53:46.672Z,452.00
2023-04-10T00:54:46.624Z,453.00
2023-04-10T00:55:46.635Z,450.00
2023-04-10T00:56:46.597Z,452.00
2023-04-10T00:57:46.602Z,453.00
2023-04-10T00:58:46.596Z,455.00
2023-04-10T00:59:46.640Z,456.00
2023-04-10T01:00:46.629Z,456.00
2023-04-10T01:01:46.641Z,457.00
2023-04-10T01:02:46.695Z,457.00
2023-04-10T01:03:46.656Z,456.00
2023-04-10T01:04:46.563Z,458.00
2023-04-10T01:05:46.540Z,459.00
2023-04-10T01:06:46.608Z,459.00
2023-04-10T01:07:46.567Z,458.00
2023-04-10T01:08:46.539Z,456.00
2023-04-10T01:09:46.539Z,456.00
2023-04-10T01:10:46.565Z,457.00
2023-04-10T01:11:46.562Z,458.00
2023-04-10T01:12:46.493Z,458.00
2023-04-10T01:13:46.509Z,460.00
2023-04-10T01:14:46.503Z,461.00
2023-04-10T01:15:46.481Z,461.00
2023-04-10T01:16:46.595Z,461.00
2023-04-10T01:17:46.519Z,461.00
2023-04-10T01:18:46.499Z,460.00
2023-04-10T01:19:46.513Z,459.00
2023-04-10T01:20:46.481Z,458.00
2023-04-10T01:21:46.499Z,457.00
2023-04-10T01:22:46.488Z,456.00
2023-04-10T01:23:46.451Z,454.00
2023-04-10T01:24:46.444Z,452.00
2023-04-10T01:25:46.439Z,450.00
2023-04-10T01:26:46.442Z,450.00
2023-04-10T01:27:46.424Z,449.00
2023-04-10T01:28:46.453Z,450.00
2023-04-10T01:29:46.419Z,450.00
2023-04-10T01:30:46.972Z,449.00
2023-04-10T01:31:46.425Z,450.00
2023-04-10T01:32:46.432Z,450.00
2023-04-10T01:33:46.367Z,452.00
2023-04-10T01:34:46.371Z,452.00
2023-04-10T01:35:46.381Z,454.00
2023-04-10T01:36:46.386Z,456.00
2023-04-10T01:37:46.388Z,457.00
2023-04-10T01:38:46.368Z,458.00
2023-04-10T01:39:46.310Z,458.00
2023-04-10T01:40:46.329Z,459.00
2023-04-10T01:41:46.319Z,461.00
2023-04-10T01:42:46.311Z,462.00
2023-04-10T01:43:46.290Z,461.00
2023-04-10T01:44:46.318Z,462.00
2023-04-10T01:45:46.303Z,461.00
2023-04-10T01:46:46.429Z,461.00
2023-04-10T01:47:46.338Z,462.00
2023-04-10T01:48:46.280Z,463.00
2023-04-10T01:49:46.279Z,463.00
2023-04-10T01:50:46.253Z,466.00
2023-04-10T01:51:46.379Z,467.00
2023-04-10T01:52:46.394Z,468.00
2023-04-10T01:53:46.487Z,468.00
2023-04-10T01:54:46.503Z,465.00
2023-04-10T01:55:46.518Z,465.00
2023-04-10T01:56:46.553Z,465.00
2023-04-10T01:57:46.679Z,465.00
2023-04-10T01:58:46.571Z,467.00
2023-04-10T01:59:46.634Z,468.00
2023-04-10T02:00:46.643Z,467.00
2023-04-10T02:01:46.751Z,468.00
2023-04-10T02:02:46.948Z,470.00
2023-04-10T02:03:46.875Z,469.00
2023-04-10T02:04:46.955Z,466.00
2023-04-10T02:05:46.878Z,466.00
2023-04-10T02:06:46.928Z,465.00
2023-04-10T02:07:46.988Z,464.00
2023-04-10T02:08:47.037Z,463.00
2023-04-10T02:09:47.985Z,462.00
2023-04-10T02:10:47.095Z,461.00
2023-04-10T02:11:47.080Z,461.00
2023-04-10T02:12:47.115Z,460.00
2023-04-10T02:13:47.136Z,459.00
2023-04-10T02:14:47.122Z,458.00
2023-04-10T02:15:47.205Z,457.00
2023-04-10T02:16:47.204Z,456.00
2023-04-10T02:17:47.308Z,457.00
2023-04-10T02:18:47.264Z,453.00
2023-04-10T02:19:47.277Z,453.00
2023-04-10T02:20:47.308Z,454.00
2023-04-10T02:21:47.386Z,453.00
2023-04-10T02:22:47.356Z,453.00
2023-04-10T02:23:47.395Z,453.00
2023-04-10T02:24:47.392Z,452.00
2023-04-10T02:25:47.440Z,452.00
2023-04-10T02:26:47.519Z,450.00
2023-04-10T02:27:47.492Z,453.00
2023-04-10T02:28:47.547Z,454.00
2023-04-10T02:29:47.554Z,455.00
2023-04-10T02:30:47.485Z,454.00
2023-04-10T02:31:47.656Z,453.00
2023-04-10T02:32:47.614Z,450.00
2023-04-10T02:33:47.639Z,449.00
2023-04-10T02:34:47.697Z,449.00
2023-04-10T02:35:47.678Z,451.00
2023-04-10T02:36:47.689Z,453.00
2023-04-10T02:37:47.724Z,454.00
2023-04-10T02:38:47.752Z,456.00
2023-04-10T02:39:47.805Z,458.00
2023-04-10T02:40:47.816Z,456.00
2023-04-10T02:41:47.938Z,456.00
2023-04-10T02:42:47.885Z,455.00
2023-04-10T02:43:47.902Z,456.00
2023-04-10T02:44:47.982Z,457.00
2023-04-10T02:45:47.999Z,456.00
2023-04-10T02:46:48.117Z,453.00
2023-04-10T02:47:48.160Z,452.00
2023-04-10T02:48:48.161Z,453.00
2023-04-10T02:49:48.218Z,453.00
2023-04-10T02:50:48.247Z,451.00
2023-04-10T02:51:48.293Z,450.00
2023-04-10T02:52:48.377Z,450.00
2023-04-10T02:53:56.170Z,453.00
2023-04-10T02:54:48.682Z,456.00
2023-04-10T02:55:48.360Z,457.00
2023-04-10T02:56:48.361Z,457.00
2023-04-10T02:57:48.360Z,457.00
2023-04-10T02:58:48.338Z,459.00
2023-04-10T02:59:48.354Z,459.00
2023-04-10T03:00:48.327Z,459.00
2023-04-10T03:01:48.446Z,460.00
2023-04-10T03:02:48.457Z,459.00
2023-04-10T03:03:48.433Z,459.00
2023-04-10T03:04:48.390Z,458.00
2023-04-10T03:05:48.300Z,461.00
2023-04-10T03:06:48.291Z,464.00
2023-04-10T03:07:48.331Z,466.00
2023-04-10T03:08:48.368Z,468.00
2023-04-10T03:09:48.445Z,470.00
2023-04-10T03:10:48.490Z,470.00
2023-04-10T03:11:48.563Z,470.00
2023-04-10T03:12:48.640Z,473.00
2023-04-10T03:13:48.725Z,475.00
2023-04-10T03:14:48.765Z,476.00
2023-04-10T03:15:48.840Z,475.00
2023-04-10T03:16:49.928Z,475.00
2023-04-10T03:17:48.964Z,474.00
2023-04-10T03:18:48.970Z,471.00
2023-04-10T03:19:49.053Z,472.00
2023-04-10T03:20:49.107Z,470.00
2023-04-10T03:21:49.154Z,470.00
2023-04-10T03:22:49.222Z,469.00
2023-04-10T03:23:49.246Z,466.00
2023-04-10T03:24:49.292Z,466.00
2023-04-10T03:25:49.386Z,467.00
2023-04-10T03:26:49.433Z,466.00
2023-04-10T03:27:49.477Z,466.00
2023-04-10T03:28:49.540Z,466.00
2023-04-10T03:29:49.589Z,466.00
2023-04-10T03:30:49.626Z,468.00
2023-04-10T03:31:49.725Z,467.00
2023-04-10T03:32:49.723Z,466.00
2023-04-10T03:33:49.803Z,465.00
2023-04-10T03:34:49.775Z,466.00
2023-04-10T03:35:49.832Z,467.00
2023-04-10T03:36:49.903Z,468.00
2023-04-10T03:37:49.937Z,468.00
2023-04-10T03:38:49.905Z,469.00
2023-04-10T03:39:50.010Z,470.00
2023-04-10T03:40:50.053Z,469.00
2023-04-10T03:41:50.094Z,467.00
2023-04-10T03:44:10.282Z,470.00
2023-04-10T03:45:10.278Z,471.00
2023-04-10T03:46:10.236Z,470.00
2023-04-10T03:47:10.283Z,468.00
2023-04-10T03:48:10.242Z,469.00
2023-04-10T03:49:10.251Z,467.00
2023-04-10T03:50:10.229Z,467.00
2023-04-10T03:51:10.226Z,470.00
2023-04-10T03:52:10.228Z,470.00
2023-04-10T03:53:10.247Z,470.00
2023-04-10T03:54:10.215Z,470.00
2023-04-10T03:55:10.189Z,469.00
2023-04-10T03:56:10.183Z,470.00
2023-04-10T03:57:10.197Z,469.00
2023-04-10T03:58:10.175Z,469.00
2023-04-10T03:59:10.207Z,468.00
2023-04-10T04:00:10.123Z,468.00
2023-04-10T04:01:10.191Z,470.00
2023-04-10T04:02:10.325Z,469.00
2023-04-10T04:03:10.350Z,468.00
2023-04-10T04:04:10.246Z,467.00
2023-04-10T04:05:10.170Z,469.00
2023-04-10T04:06:10.127Z,471.00
2023-04-10T04:07:10.150Z,472.00
2023-04-10T04:08:10.106Z,473.00
2023-04-10T04:09:10.095Z,474.00
2023-04-10T04:10:10.120Z,474.00
2023-04-10T04:11:10.117Z,475.00
2023-04-10T04:12:10.135Z,476.00
2023-04-10T04:13:10.204Z,476.00
2023-04-10T04:14:10.129Z,477.00
2023-04-10T04:15:10.121Z,477.00
2023-04-10T04:16:10.199Z,477.00
2023-04-10T04:17:10.098Z,477.00
2023-04-10T04:18:10.189Z,475.00
2023-04-10T04:19:10.161Z,473.00
2023-04-10T04:20:10.239Z,472.00
2023-04-10T04:21:10.344Z,475.00
2023-04-10T04:22:10.389Z,474.00
2023-04-10T04:23:10.413Z,476.00
2023-04-10T04:24:10.442Z,475.00
2023-04-10T04:25:10.538Z,477.00
2023-04-10T04:26:10.565Z,478.00
2023-04-10T04:27:10.687Z,480.00
2023-04-10T04:28:10.786Z,478.00
2023-04-10T04:29:10.787Z,478.00
2023-04-10T04:30:10.870Z,476.00
2023-04-10T04:31:10.914Z,477.00
2023-04-10T04:32:11.039Z,476.00
2023-04-10T04:33:11.085Z,473.00
2023-04-10T04:34:11.127Z,472.00
2023-04-10T04:35:11.205Z,471.00
2023-04-10T04:36:11.292Z,472.00
2023-04-10T04:37:11.401Z,473.00
2023-04-10T04:38:11.361Z,472.00
2023-04-10T04:39:11.439Z,475.00
2023-04-10T04:40:11.325Z,476.00
2023-04-10T04:41:11.365Z,478.00
2023-04-10T04:42:11.397Z,479.00
2023-04-10T04:43:11.375Z,482.00
2023-04-10T04:44:11.368Z,484.00
2023-04-10T04:45:11.400Z,483.00
2023-04-10T04:46:11.369Z,483.00
2023-04-10T04:47:11.355Z,481.00
2023-04-10T04:48:11.388Z,480.00
2023-04-10T04:49:11.381Z,478.00
2023-04-10T04:50:11.487Z,477.00
2023-04-10T04:51:11.421Z,479.00
2023-04-10T04:52:11.450Z,481.00
2023-04-10T04:53:11.452Z,481.00
2023-04-10T04:54:11.441Z,481.00
2023-04-10T04:55:11.449Z,484.00
2023-04-10T04:56:11.462Z,487.00
2023-04-10T04:57:11.493Z,485.00
2023-04-10T04:58:11.470Z,487.00
2023-04-10T04:59:11.456Z,488.00
2023-04-10T05:01:40.714Z,474.00
2023-04-10T05:02:31.533Z,475.00
2023-04-10T05:03:31.630Z,473.00
2023-04-10T05:04:31.453Z,475.00
2023-04-10T05:05:31.451Z,479.00
2023-04-10T05:06:31.436Z,480.00
2023-04-10T05:07:31.761Z,479.00
2023-04-10T05:08:31.465Z,478.00
2023-04-10T05:09:31.427Z,478.00
2023-04-10T05:10:31.534Z,476.00
2023-04-10T05:11:31.421Z,479.00
2023-04-10T05:12:31.511Z,480.00
2023-04-10T05:13:31.398Z,479.00
2023-04-10T05:14:31.430Z,475.00
2023-04-10T05:15:31.372Z,475.00
2023-04-10T05:16:31.432Z,474.00
2023-04-10T05:17:31.452Z,470.00
2023-04-10T05:18:31.410Z,467.00
2023-04-10T05:19:31.390Z,463.00
2023-04-10T05:20:31.389Z,461.00
2023-04-10T05:21:31.457Z,461.00
2023-04-10T05:22:31.852Z,464.00
2023-04-10T05:23:31.354Z,465.00
2023-04-10T05:24:31.377Z,463.00
2023-04-10T05:25:31.371Z,463.00
2023-04-10T05:26:31.316Z,460.00
2023-04-10T05:27:31.380Z,458.00
2023-04-10T05:28:31.300Z,458.00
2023-04-10T05:29:31.311Z,458.00
2023-04-10T05:30:31.296Z,459.00
2023-04-10T05:31:31.748Z,458.00
2023-04-10T05:32:31.275Z,459.00
2023-04-10T05:33:31.573Z,459.00
2023-04-10T05:34:31.639Z,461.00
2023-04-10T05:35:31.271Z,462.00
2023-04-10T05:36:31.247Z,463.00
2023-04-10T05:37:31.273Z,464.00
2023-04-10T05:38:31.275Z,459.00
2023-04-10T05:39:31.272Z,459.00
2023-04-10T05:40:32.011Z,459.00
2023-04-10T05:41:31.661Z,457.00
2023-04-10T05:42:31.272Z,456.00
2023-04-10T05:43:31.203Z,459.00
2023-04-10T05:44:31.207Z,461.00
2023-04-10T05:48:10.761Z,459.00
2023-04-10T05:49:10.788Z,457.00
2023-04-10T05:50:10.766Z,456.00
2023-04-10T05:51:10.700Z,457.00
2023-04-10T05:52:10.730Z,458.00
2023-04-10T05:53:10.811Z,460.00
2023-04-10T05:54:10.791Z,460.00
2023-04-10T05:55:10.725Z,460.00
2023-04-10T05:56:10.725Z,464.00
2023-04-10T05:57:10.785Z,466.00
2023-04-10T05:58:10.739Z,465.00
2023-04-10T05:59:10.671Z,469.00
2023-04-10T06:00:10.682Z,469.00
2023-04-10T06:01:10.701Z,469.00
2023-04-10T06:02:10.781Z,470.00
2023-04-10T06:03:10.787Z,469.00
2023-04-10T06:04:10.906Z,469.00
2023-04-10T06:05:10.757Z,469.00
2023-04-10T06:06:10.684Z,469.00
2023-04-10T06:07:10.671Z,466.00
2023-04-10T06:08:10.677Z,466.00
2023-04-10T06:09:10.634Z,469.00
2023-04-10T06:10:10.705Z,468.00
2023-04-10T06:11:10.615Z,470.00
2023-04-10T06:12:10.625Z,468.00
2023-04-10T06:13:11.323Z,468.00
2023-04-10T06:14:10.626Z,468.00
2023-04-10T06:15:10.686Z,468.00
2023-04-10T06:16:10.804Z,469.00
2023-04-10T06:17:10.589Z,467.00
2023-04-10T06:18:10.609Z,466.00
2023-04-10T06:19:10.571Z,463.00
2023-04-10T06:20:10.651Z,462.00
2023-04-10T06:21:10.543Z,462.00
2023-04-10T06:22:10.579Z,466.00
2023-04-10T06:23:10.614Z,463.00
2023-04-10T06:24:12.808Z,464.00
2023-04-10T06:25:10.600Z,461.00
2023-04-10T06:26:10.658Z,461.00
2023-04-10T06:27:10.654Z,464.00
2023-04-10T06:28:10.737Z,465.00
2023-04-10T06:29:10.750Z,466.00
2023-04-10T06:30:10.889Z,468.00
2023-04-10T06:31:10.812Z,466.00
2023-04-10T06:32:10.793Z,466.00
2023-04-10T06:33:10.877Z,462.00
2023-04-10T06:34:10.831Z,462.00
2023-04-10T06:35:10.865Z,461.00
2023-04-10T06:36:10.885Z,462.00
2023-04-10T06:37:10.879Z,463.00
2023-04-10T06:38:11.747Z,463.00
2023-04-10T06:39:10.951Z,464.00
2023-04-10T06:40:11.001Z,462.00
2023-04-10T06:41:11.008Z,463.00
2023-04-10T06:42:11.044Z,459.00
2023-04-10T06:43:11.140Z,456.00
2023-04-10T06:44:11.497Z,457.00
2023-04-10T06:45:11.300Z,458.00
2023-04-10T06:46:11.314Z,458.00
2023-04-10T06:47:11.372Z,456.00
2023-04-10T06:48:11.441Z,455.00
2023-04-10T06:49:11.461Z,455.00
2023-04-10T06:50:11.437Z,457.00
2023-04-10T06:51:11.426Z,458.00
2023-04-10T06:52:11.479Z,458.00
2023-04-10T06:53:11.515Z,455.00
2023-04-10T06:54:11.549Z,454.00
2023-04-10T06:55:11.589Z,456.00
2023-04-10T06:56:11.528Z,454.00
2023-04-10T06:57:11.647Z,456.00
2023-04-10T06:58:11.790Z,455.00
2023-04-10T06:59:12.496Z,456.00
2023-04-10T07:00:11.720Z,455.00
2023-04-10T07:01:11.799Z,455.00
2023-04-10T07:02:11.836Z,453.00
2023-04-10T07:03:11.878Z,452.00
2023-04-10T07:04:11.981Z,452.00
2023-04-10T07:05:11.897Z,451.00
2023-04-10T07:06:11.964Z,452.00
2023-04-10T07:07:11.997Z,455.00
2023-04-10T07:08:12.029Z,456.00
2023-04-10T07:09:12.022Z,457.00
2023-04-10T07:10:12.059Z,459.00
2023-04-10T07:11:12.089Z,458.00
2023-04-10T07:12:12.478Z,456.00
2023-04-10T07:13:12.226Z,454.00
2023-04-10T07:14:12.771Z,456.00
2023-04-10T07:15:12.352Z,457.00
2023-04-10T07:16:12.335Z,457.00
2023-04-10T07:17:12.387Z,458.00
2023-04-10T07:18:12.468Z,454.00
2023-04-10T07:19:12.469Z,452.00
2023-04-10T07:20:12.594Z,456.00
2023-04-10T07:21:12.572Z,451.00
2023-04-10T07:22:12.637Z,455.00
2023-04-10T07:23:12.711Z,454.00
2023-04-10T07:24:12.757Z,454.00
2023-04-10T07:25:12.865Z,451.00
2023-04-10T07:26:12.824Z,452.00
2023-04-10T07:27:12.871Z,453.00
2023-04-10T07:28:12.963Z,454.00
2023-04-10T07:29:12.910Z,452.00
2023-04-10T07:30:13.838Z,451.00
2023-04-10T07:31:13.027Z,450.00
2023-04-10T07:32:13.186Z,450.00
2023-04-10T07:33:13.373Z,448.00
2023-04-10T07:34:13.075Z,448.00
2023-04-10T07:35:13.138Z,447.00
2023-04-10T07:36:13.175Z,446.00
2023-04-10T07:37:13.143Z,447.00
2023-04-10T07:38:13.232Z,446.00
2023-04-10T07:39:13.345Z,446.00
2023-04-10T07:40:13.918Z,447.00
2023-04-10T07:41:13.346Z,447.00
2023-04-10T07:42:13.394Z,447.00
2023-04-10T07:43:13.439Z,448.00
2023-04-10T07:44:13.460Z,448.00
2023-04-10T07:45:13.559Z,448.00
2023-04-10T07:46:13.558Z,447.00
2023-04-10T07:47:13.582Z,447.00
2023-04-10T07:48:13.611Z,450.00
2023-04-10T07:49:13.644Z,450.00
2023-04-10T07:50:13.639Z,448.00
2023-04-10T07:51:14.689Z,445.00
2023-04-10T07:52:13.690Z,443.00
2023-04-10T07:53:13.763Z,444.00
2023-04-10T07:54:13.883Z,445.00
2023-04-10T07:55:13.906Z,444.00
2023-04-10T07:56:13.969Z,445.00
2023-04-10T07:57:14.003Z,444.00
2023-04-10T07:58:14.101Z,443.00
2023-04-10T07:59:14.099Z,442.00
2023-04-10T08:00:14.125Z,442.00
2023-04-10T08:01:14.124Z,441.00
2023-04-10T08:02:14.265Z,440.00
2023-04-10T08:03:14.300Z,443.00
2023-04-10T08:04:14.522Z,446.00
2023-04-10T08:05:14.392Z,444.00
2023-04-10T08:06:14.275Z,443.00
2023-04-10T08:07:14.329Z,443.00
2023-04-10T08:08:14.407Z,443.00
2023-04-10T08:09:14.365Z,442.00
2023-04-10T08:10:14.375Z,445.00
2023-04-10T08:11:14.766Z,442.00
2023-04-10T08:12:14.376Z,439.00
2023-04-10T08:13:14.448Z,439.00
2023-04-10T08:14:18.248Z,439.00
2023-04-10T08:15:14.375Z,440.00
2023-04-10T08:16:14.420Z,437.00
2023-04-10T08:17:14.471Z,436.00
2023-04-10T08:18:14.425Z,436.00
2023-04-10T08:19:14.444Z,434.00
2023-04-10T08:20:14.385Z,437.00
2023-04-10T08:21:14.336Z,435.00
2023-04-10T08:22:14.334Z,436.00
2023-04-10T08:23:20.478Z,436.00
2023-04-10T08:24:15.367Z,440.00
2023-04-10T08:25:14.353Z,438.00
2023-04-10T08:26:14.332Z,438.00
2023-04-10T08:27:14.314Z,439.00
2023-04-10T08:28:14.365Z,441.00
2023-04-10T08:29:14.370Z,440.00
2023-04-10T08:30:14.314Z,435.00
2023-04-10T08:31:14.380Z,435.00
2023-04-10T08:32:14.243Z,434.00
2023-04-10T08:33:14.299Z,434.00
2023-04-10T08:34:14.301Z,433.00
2023-04-10T08:35:14.263Z,432.00
2023-04-10T08:36:14.381Z,434.00
2023-04-10T08:37:14.382Z,435.00
2023-04-10T08:38:14.859Z,435.00
2023-04-10T08:39:14.512Z,432.00
2023-04-10T08:40:14.525Z,433.00
2023-04-10T08:41:14.532Z,433.00
2023-04-10T08:42:14.604Z,436.00
2023-04-10T08:43:14.618Z,438.00
2023-04-10T08:44:14.606Z,437.00
2023-04-10T08:45:15.276Z,438.00
2023-04-10T08:46:14.950Z,438.00
2023-04-10T08:47:14.690Z,438.00
2023-04-10T08:48:14.709Z,437.00
2023-04-10T08:49:14.767Z,432.00
2023-04-10T08:50:14.814Z,434.00
2023-04-10T08:51:19.462Z,435.00
2023-04-10T08:52:15.769Z,434.00
2023-04-10T08:53:14.765Z,433.00
2023-04-10T08:54:14.797Z,433.00
2023-04-10T08:55:14.777Z,433.00
2023-04-10T08:56:14.765Z,434.00
2023-04-10T08:57:14.739Z,430.00
2023-04-10T08:58:14.732Z,431.00
2023-04-10T08:59:14.792Z,432.00
2023-04-10T09:00:23.100Z,435.00
2023-04-10T09:01:15.732Z,436.00
2023-04-10T09:02:14.798Z,437.00
2023-04-10T09:03:14.968Z,436.00
2023-04-10T09:04:14.841Z,435.00
2023-04-10T09:05:14.679Z,433.00
2023-04-10T09:06:14.672Z,434.00
2023-04-10T09:07:14.688Z,434.00
2023-04-10T09:08:14.693Z,435.00
2023-04-10T09:09:14.694Z,436.00
2023-04-10T09:10:14.723Z,435.00
2023-04-10T09:11:14.625Z,435.00
2023-04-10T09:12:14.620Z,436.00
2023-04-10T09:13:14.598Z,439.00
2023-04-10T09:14:14.624Z,439.00
2023-04-10T09:15:14.640Z,443.00
2023-04-10T09:16:14.620Z,438.00
2023-04-10T09:17:14.642Z,436.00
2023-04-10T09:18:14.589Z,434.00
2023-04-10T09:19:14.649Z,438.00
2023-04-10T09:20:14.668Z,436.00
2023-04-10T09:21:14.713Z,436.00
2023-04-10T09:22:14.763Z,437.00
2023-04-10T09:23:14.698Z,439.00
2023-04-10T09:24:14.916Z,438.00
2023-04-10T09:25:14.791Z,439.00
2023-04-10T09:26:14.894Z,440.00
2023-04-10T09:27:14.930Z,442.00
2023-04-10T09:28:14.907Z,442.00
2023-04-10T09:29:14.946Z,442.00
2023-04-10T09:30:14.887Z,442.00
2023-04-10T09:31:14.969Z,443.00
2023-04-10T09:32:15.022Z,442.00
2023-04-10T09:33:15.055Z,442.00
2023-04-10T09:34:15.078Z,442.00
2023-04-10T09:35:15.175Z,442.00
2023-04-10T09:36:15.379Z,440.00
2023-04-10T09:37:15.182Z,442.00
2023-04-10T09:38:15.193Z,442.00
2023-04-10T09:39:15.259Z,442.00
2023-04-10T09:40:15.326Z,441.00
2023-04-10T09:41:15.227Z,439.00
2023-04-10T09:42:15.342Z,439.00
2023-04-10T09:43:15.323Z,437.00
2023-04-10T09:44:15.384Z,437.00
2023-04-10T09:45:15.411Z,438.00
2023-04-10T09:46:15.408Z,436.00
2023-04-10T09:47:15.402Z,439.00
2023-04-10T09:48:15.470Z,441.00
2023-04-10T09:49:15.480Z,440.00
2023-04-10T09:50:15.465Z,443.00
2023-04-10T09:51:15.501Z,442.00
2023-04-10T09:52:15.513Z,443.00
2023-04-10T09:53:15.523Z,443.00
2023-04-10T09:54:15.578Z,440.00
2023-04-10T09:55:15.602Z,439.00
2023-04-10T09:56:15.520Z,437.00
2023-04-10T09:57:15.515Z,437.00
2023-04-10T09:58:15.559Z,437.00
2023-04-10T09:59:15.562Z,437.00
2023-04-10T10:00:15.614Z,437.00
2023-04-10T10:01:15.648Z,437.00
2023-04-10T10:02:15.771Z,436.00
2023-04-10T10:03:15.840Z,438.00
2023-04-10T10:04:15.917Z,436.00
2023-04-10T10:05:15.896Z,439.00
2023-04-10T10:06:15.901Z,439.00
2023-04-10T10:07:16.027Z,440.00
2023-04-10T10:08:16.038Z,441.00
2023-04-10T10:09:16.084Z,438.00
2023-04-10T10:10:16.133Z,439.00
2023-04-10T10:11:16.202Z,439.00
2023-04-10T10:12:16.198Z,440.00
2023-04-10T10:13:16.168Z,441.00
2023-04-10T10:14:16.183Z,441.00
2023-04-10T10:15:16.168Z,445.00
2023-04-10T10:16:16.204Z,447.00
2023-04-10T10:17:16.168Z,449.00
2023-04-10T10:18:16.192Z,445.00
2023-04-10T10:19:16.246Z,443.00
2023-04-10T10:20:16.188Z,441.00
2023-04-10T10:21:16.232Z,443.00
2023-04-10T10:22:16.864Z,442.00
2023-04-10T10:23:16.331Z,443.00
2023-04-10T10:24:16.408Z,445.00
2023-04-10T10:25:16.339Z,447.00
2023-04-10T10:26:16.376Z,447.00
2023-04-10T10:27:16.393Z,447.00
2023-04-10T10:28:16.458Z,445.00
2023-04-10T10:29:16.537Z,445.00
2023-04-10T10:30:28.689Z,447.00
2023-04-10T10:31:17.624Z,444.00
2023-04-10T10:32:16.501Z,442.00
2023-04-10T10:33:16.492Z,442.00
2023-04-10T10:34:16.549Z,437.00
2023-04-10T10:35:16.506Z,437.00
2023-04-10T10:36:16.506Z,438.00
2023-04-10T10:37:16.437Z,442.00
2023-04-10T10:38:16.442Z,443.00
2023-04-10T10:39:16.474Z,443.00
2023-04-10T10:40:16.497Z,445.00
2023-04-10T10:41:16.434Z,445.00
2023-04-10T10:42:16.414Z,445.00
2023-04-10T10:43:16.471Z,442.00
2023-04-10T10:44:16.427Z,443.00
2023-04-10T10:45:16.378Z,439.00
2023-04-10T10:46:16.787Z,437.00
2023-04-10T10:47:16.438Z,439.00
2023-04-10T10:48:16.399Z,442.00
2023-04-10T10:49:16.361Z,443.00
2023-04-10T10:50:16.410Z,444.00
2023-04-10T10:51:16.353Z,442.00
2023-04-10T10:52:16.388Z,444.00
2023-04-10T10:53:16.356Z,445.00
2023-04-10T10:54:16.338Z,447.00
2023-04-10T10:55:16.326Z,445.00
2023-04-10T10:56:16.327Z,448.00
2023-04-10T10:57:16.870Z,446.00
2023-04-10T10:58:16.313Z,448.00
2023-04-10T10:59:16.370Z,450.00
2023-04-10T11:00:16.427Z,450.00
2023-04-10T11:01:16.301Z,452.00
2023-04-10T11:02:16.328Z,454.00
2023-04-10T11:03:16.454Z,455.00
2023-04-10T11:04:16.338Z,453.00
2023-04-10T11:05:16.308Z,450.00
2023-04-10T11:06:16.268Z,450.00
2023-04-10T11:07:16.239Z,450.00
2023-04-10T11:08:16.247Z,446.00
2023-04-10T11:09:16.351Z,444.00
2023-04-10T11:10:16.197Z,443.00
2023-04-10T11:11:16.396Z,442.00
2023-04-10T11:12:16.218Z,442.00
2023-04-10T11:13:16.347Z,442.00
2023-04-10T11:14:16.359Z,439.00
2023-04-10T11:15:16.338Z,439.00
2023-04-10T11:16:16.373Z,439.00
2023-04-10T11:17:16.382Z,438.00
2023-04-10T11:18:16.391Z,440.00
2023-04-10T11:19:17.019Z,442.00
2023-04-10T11:20:16.377Z,446.00
2023-04-10T11:21:16.414Z,447.00
2023-04-10T11:22:16.507Z,448.00
2023-04-10T11:23:16.431Z,449.00
2023-04-10T11:24:16.462Z,447.00
2023-04-10T11:25:16.451Z,444.00
2023-04-10T11:26:16.562Z,444.00
2023-04-10T11:27:16.568Z,444.00
2023-04-10T11:28:16.576Z,445.00
2023-04-10T11:29:16.675Z,445.00
2023-04-10T11:30:16.679Z,442.00
2023-04-10T11:31:16.689Z,442.00
2023-04-10T11:32:17.024Z,442.00
2023-04-10T11:33:16.716Z,445.00
2023-04-10T11:34:16.812Z,445.00
2023-04-10T11:35:16.718Z,445.00
2023-04-10T11:36:16.798Z,444.00
2023-04-10T11:37:16.820Z,439.00
2023-04-10T11:38:16.826Z,439.00
2023-04-10T11:39:16.868Z,441.00
2023-04-10T11:40:16.849Z,441.00
2023-04-10T11:41:16.935Z,440.00
2023-04-10T11:42:16.972Z,437.00
2023-04-10T11:43:17.066Z,435.00
2023-04-10T11:44:17.019Z,433.00
2023-04-10T11:45:17.091Z,434.00
2023-04-10T11:46:17.158Z,436.00
2023-04-10T11:47:17.181Z,437.00
2023-04-10T11:48:17.169Z,436.00
2023-04-10T11:49:17.222Z,438.00
2023-04-10T11:50:17.223Z,438.00
2023-04-10T11:51:17.228Z,435.00
2023-04-10T11:52:17.268Z,437.00
2023-04-10T11:53:17.251Z,440.00
2023-04-10T11:54:17.314Z,441.00
2023-04-10T11:55:17.360Z,442.00
2023-04-10T11:56:17.339Z,440.00
2023-04-10T11:57:17.442Z,438.00
2023-04-10T11:58:17.444Z,440.00
2023-04-10T11:59:17.461Z,436.00
2023-04-10T12:00:17.500Z,439.00
2023-04-10T12:01:17.510Z,437.00
2023-04-10T12:02:17.682Z,442.00
2023-04-10T12:03:17.700Z,442.00
2023-04-10T12:04:17.923Z,443.00
2023-04-10T12:05:17.779Z,442.00
2023-04-10T12:06:17.658Z,442.00
2023-04-10T12:07:17.713Z,443.00
2023-04-10T12:08:17.754Z,446.00
2023-04-10T12:09:17.772Z,444.00
2023-04-10T12:10:17.770Z,442.00
2023-04-10T12:11:17.810Z,442.00
2023-04-10T12:12:17.852Z,443.00
2023-04-10T12:13:17.900Z,446.00
2023-04-10T12:14:17.940Z,447.00
2023-04-10T12:15:17.913Z,443.00
2023-04-10T12:16:18.039Z,440.00
2023-04-10T12:17:17.944Z,441.00
2023-04-10T12:18:17.991Z,443.00
2023-04-10T12:19:18.109Z,442.00
2023-04-10T12:20:17.990Z,437.00
2023-04-10T12:21:18.007Z,436.00
2023-04-10T12:22:18.127Z,436.00
2023-04-10T12:23:18.191Z,438.00
2023-04-10T12:24:18.237Z,436.00
2023-04-10T12:25:18.252Z,436.00
2023-04-10T12:26:18.289Z,433.00
2023-04-10T12:27:18.331Z,435.00
2023-04-10T12:28:18.363Z,434.00
2023-04-10T12:29:18.367Z,432.00
2023-04-10T12:30:18.428Z,433.00
2023-04-10T12:31:18.437Z,436.00
2023-04-10T12:32:18.517Z,436.00
2023-04-10T12:33:18.438Z,436.00
2023-04-10T12:34:18.563Z,439.00